createdAt,value
2017-09-13T00:00:15.141Z,998.11
2017-09-13T00:01:15.157Z,998.07
2017-09-13T00:02:15.177Z,998.08
2017-09-13T00:03:15.197Z,998.1
2017-09-13T00:04:15.216Z,998.15
2017-09-13T00:05:15.236Z,998.13
2017-09-13T00:06:15.253Z,998.17
2017-09-13T00:07:15.273Z,998.17
2017-09-13T00:08:15.291Z,998.22
2017-09-13T00:09:15.311Z,998.15
2017-09-13T00:10:15.331Z,998.14
2017-09-13T00:11:15.349Z,998.1
2017-09-13T00:12:15.367Z,998.08
2017-09-13T00:13:15.387Z,998.12
2017-09-13T00:14:15.408Z,998.1
2017-09-13T00:15:15.427Z,998.04
2017-09-13T00:16:15.442Z,998.01
2017-09-13T00:17:15.462Z,998.03
2017-09-13T00:18:15.482Z,998.03
2017-09-13T00:19:15.501Z,998.04
2017-09-13T00:20:15.519Z,998.06
2017-09-13T00:21:15.539Z,998.03
2017-09-13T00:22:15.557Z,998.04
2017-09-13T00:23:15.671Z,998.02
2017-09-13T00:24:15.594Z,998.02
2017-09-13T00:25:15.727Z,997.99
2017-09-13T00:26:15.721Z,998.02
2017-09-13T00:27:15.744Z,998.08
2017-09-13T00:28:15.753Z,998.12
2017-09-13T00:29:15.754Z,998.15
2017-09-13T00:30:15.708Z,998.1
2017-09-13T00:31:15.727Z,998.07
2017-09-13T00:32:15.747Z,998.13
2017-09-13T00:33:15.765Z,998.09
2017-09-13T00:34:15.782Z,998.01
2017-09-13T00:35:15.803Z,997.99
2017-09-13T00:36:15.821Z,998.01
2017-09-13T00:37:15.840Z,997.98
2017-09-13T00:38:15.859Z,997.94
2017-09-13T00:39:15.876Z,997.93
2017-09-13T00:40:15.896Z,997.92
2017-09-13T00:41:15.917Z,997.91
2017-09-13T00:42:15.936Z,997.84
2017-09-13T00:43:15.952Z,997.86
2017-09-13T00:44:15.971Z,997.87
2017-09-13T00:45:15.990Z,997.87
2017-09-13T00:46:16.009Z,997.88
2017-09-13T00:47:16.027Z,997.93
2017-09-13T00:48:16.047Z,997.91
2017-09-13T00:49:16.067Z,997.86
2017-09-13T00:50:16.085Z,997.89
2017-09-13T00:51:16.104Z,997.85
2017-09-13T00:52:16.238Z,997.86
2017-09-13T00:53:16.140Z,997.85
2017-09-13T00:54:16.161Z,997.9
2017-09-13T00:55:16.180Z,997.88
2017-09-13T00:56:16.199Z,997.87
2017-09-13T00:57:16.216Z,997.83
2017-09-13T00:58:16.234Z,997.84
2017-09-13T00:59:16.253Z,997.83
2017-09-13T01:00:16.271Z,997.86
2017-09-13T01:01:16.294Z,997.79
2017-09-13T01:02:16.309Z,997.79
2017-09-13T01:03:16.373Z,997.84
2017-09-13T01:04:16.349Z,997.8
2017-09-13T01:05:16.363Z,997.85
2017-09-13T01:06:16.384Z,997.81
2017-09-13T01:07:16.403Z,997.84
2017-09-13T01:08:16.420Z,997.78
2017-09-13T01:09:16.438Z,997.73
2017-09-13T01:10:16.457Z,997.75
2017-09-13T01:11:16.697Z,997.69
2017-09-13T01:12:16.495Z,997.63
2017-09-13T01:13:16.513Z,997.65
2017-09-13T01:14:16.533Z,997.57
2017-09-13T01:15:16.552Z,997.62
2017-09-13T01:16:16.572Z,997.6
2017-09-13T01:17:16.593Z,997.58
2017-09-13T01:18:16.607Z,997.55
2017-09-13T01:19:16.628Z,997.56
2017-09-13T01:20:16.643Z,997.52
2017-09-13T01:21:16.665Z,997.52
2017-09-13T01:22:16.681Z,997.52
2017-09-13T01:23:16.700Z,997.5
2017-09-13T01:24:16.717Z,997.54
2017-09-13T01:25:16.738Z,997.5
2017-09-13T01:26:16.755Z,997.52
2017-09-13T01:27:16.782Z,997.55
2017-09-13T01:28:16.793Z,997.48
2017-09-13T01:29:16.814Z,997.44
2017-09-13T01:30:16.830Z,997.43
2017-09-13T01:31:16.848Z,997.38
2017-09-13T01:32:16.868Z,997.4
2017-09-13T01:33:16.886Z,997.39
2017-09-13T01:34:16.904Z,997.4
2017-09-13T01:35:16.922Z,997.45
2017-09-13T01:36:16.942Z,997.46
2017-09-13T01:37:16.961Z,997.47
2017-09-13T01:38:16.978Z,997.48
2017-09-13T01:39:16.997Z,997.46
2017-09-13T01:40:17.015Z,997.49
2017-09-13T01:41:17.033Z,997.48
2017-09-13T01:42:17.050Z,997.5
2017-09-13T01:43:17.071Z,997.52
2017-09-13T01:44:17.090Z,997.52
2017-09-13T01:45:17.106Z,997.51
2017-09-13T01:46:17.130Z,997.5
2017-09-13T01:47:17.147Z,997.45
2017-09-13T01:48:17.162Z,997.41
2017-09-13T01:49:17.184Z,997.39
2017-09-13T01:50:17.199Z,997.32
2017-09-13T01:51:17.219Z,997.28
2017-09-13T01:52:17.239Z,997.21
2017-09-13T01:53:17.270Z,997.22
2017-09-13T01:54:17.273Z,997.19
2017-09-13T01:55:17.293Z,997.18
2017-09-13T01:56:17.311Z,997.14
2017-09-13T01:57:17.329Z,997.12
2017-09-13T01:58:17.346Z,997.08
2017-09-13T01:59:17.365Z,997.11
2017-09-13T02:00:17.385Z,997.06
2017-09-13T02:01:17.403Z,997.08
2017-09-13T02:02:17.424Z,997.09
2017-09-13T02:03:17.465Z,997.06
2017-09-13T02:04:17.459Z,997.07
2017-09-13T02:05:17.477Z,997.02
2017-09-13T02:06:17.496Z,997.02
2017-09-13T02:07:17.517Z,997.04
2017-09-13T02:08:17.537Z,997.02
2017-09-13T02:09:17.551Z,997.02
2017-09-13T02:10:17.569Z,996.95
2017-09-13T02:11:17.592Z,996.95
2017-09-13T02:12:17.607Z,996.91
2017-09-13T02:13:17.626Z,996.88
2017-09-13T02:14:17.645Z,996.82
2017-09-13T02:15:17.663Z,996.81
2017-09-13T02:16:17.687Z,996.79
2017-09-13T02:17:17.699Z,996.78
2017-09-13T02:18:17.715Z,996.79
2017-09-13T02:19:17.735Z,996.82
2017-09-13T02:20:17.756Z,996.83
2017-09-13T02:21:17.771Z,996.86
2017-09-13T02:22:17.790Z,996.77
2017-09-13T02:23:17.812Z,996.75
2017-09-13T02:24:17.831Z,996.68
2017-09-13T02:25:17.854Z,996.7
2017-09-13T02:26:17.863Z,996.7
2017-09-13T02:27:17.883Z,996.66
2017-09-13T02:28:17.902Z,996.7
2017-09-13T02:29:17.920Z,996.65
2017-09-13T02:30:17.938Z,996.62
2017-09-13T02:31:17.955Z,996.62
2017-09-13T02:32:17.975Z,996.57
2017-09-13T02:33:17.999Z,996.54
2017-09-13T02:34:18.012Z,996.54
2017-09-13T02:35:18.029Z,996.51
2017-09-13T02:36:18.045Z,996.55
2017-09-13T02:37:18.065Z,996.52
2017-09-13T02:38:18.086Z,996.51
2017-09-13T02:39:18.110Z,996.49
2017-09-13T02:40:18.119Z,996.44
2017-09-13T02:41:18.137Z,996.42
2017-09-13T02:42:18.157Z,996.37
2017-09-13T02:43:18.175Z,996.34
2017-09-13T02:44:18.196Z,996.42
2017-09-13T02:45:18.213Z,996.44
2017-09-13T02:46:18.230Z,996.46
2017-09-13T02:47:18.252Z,996.44
2017-09-13T02:48:18.267Z,996.43
2017-09-13T02:49:18.285Z,996.44
2017-09-13T02:50:18.304Z,996.39
2017-09-13T02:51:18.321Z,996.38
2017-09-13T02:52:18.342Z,996.41
2017-09-13T02:53:18.359Z,996.38
2017-09-13T02:54:18.377Z,996.34
2017-09-13T02:55:18.394Z,996.34
2017-09-13T02:56:18.536Z,996.34
2017-09-13T02:57:18.437Z,996.29
2017-09-13T02:58:18.449Z,996.26
2017-09-13T02:59:18.468Z,996.23
2017-09-13T03:00:18.485Z,996.16
2017-09-13T03:01:18.513Z,996.21
2017-09-13T03:02:18.524Z,996.22
2017-09-13T03:03:18.540Z,996.17
2017-09-13T03:04:18.562Z,996.17
2017-09-13T03:05:18.575Z,996.13
2017-09-13T03:06:18.598Z,996.12
2017-09-13T03:07:18.614Z,996.09
2017-09-13T03:08:18.634Z,996.02
2017-09-13T03:09:18.682Z,995.98
2017-09-13T03:10:18.669Z,995.96
2017-09-13T03:11:18.688Z,995.96
2017-09-13T03:12:18.704Z,995.94
2017-09-13T03:13:18.724Z,995.94
2017-09-13T03:14:18.742Z,995.93
2017-09-13T03:15:18.760Z,995.9
2017-09-13T03:16:18.777Z,995.92
2017-09-13T03:17:18.794Z,995.8
2017-09-13T03:18:18.815Z,995.82
2017-09-13T03:19:18.832Z,995.78
2017-09-13T03:20:18.854Z,995.74
2017-09-13T03:21:18.891Z,995.73
2017-09-13T03:22:18.888Z,995.78
2017-09-13T03:23:18.905Z,995.71
2017-09-13T03:24:18.924Z,995.74
2017-09-13T03:25:18.945Z,995.71
2017-09-13T03:26:18.960Z,995.71
2017-09-13T03:27:18.979Z,995.66
2017-09-13T03:28:19.001Z,995.61
2017-09-13T03:29:19.015Z,995.52
2017-09-13T03:30:19.034Z,995.49
2017-09-13T03:31:19.050Z,995.47
2017-09-13T03:32:19.070Z,995.47
2017-09-13T03:33:19.089Z,995.49
2017-09-13T03:34:19.105Z,995.47
2017-09-13T03:35:19.179Z,995.49
2017-09-13T03:36:19.146Z,995.46
2017-09-13T03:37:19.160Z,995.41
2017-09-13T03:38:19.227Z,995.44
2017-09-13T03:39:19.196Z,995.36
2017-09-13T03:40:19.215Z,995.35
2017-09-13T03:41:19.259Z,995.34
2017-09-13T03:42:19.252Z,995.34
2017-09-13T03:43:19.271Z,995.38
2017-09-13T03:44:19.288Z,995.33
2017-09-13T03:45:19.307Z,995.31
2017-09-13T03:46:19.327Z,995.28
2017-09-13T03:47:19.467Z,995.35
2017-09-13T03:48:19.476Z,995.3
2017-09-13T03:49:19.385Z,995.28
2017-09-13T03:50:19.493Z,995.3
2017-09-13T03:51:19.504Z,995.27
2017-09-13T03:52:19.479Z,995.28
2017-09-13T03:53:19.488Z,995.32
2017-09-13T03:54:19.668Z,995.27
2017-09-13T03:55:19.492Z,995.25
2017-09-13T03:56:19.553Z,995.26
2017-09-13T03:57:19.526Z,995.27
2017-09-13T03:58:19.543Z,995.24
2017-09-13T03:59:19.564Z,995.23
2017-09-13T04:00:19.581Z,995.24
2017-09-13T04:01:19.599Z,995.27
2017-09-13T04:02:19.616Z,995.25
2017-09-13T04:03:19.633Z,995.31
2017-09-13T04:04:19.653Z,995.28
2017-09-13T04:05:19.672Z,995.32
2017-09-13T04:06:19.692Z,995.36
2017-09-13T04:07:19.705Z,995.34
2017-09-13T04:08:19.725Z,995.32
2017-09-13T04:09:19.742Z,995.29
2017-09-13T04:10:19.762Z,995.24
2017-09-13T04:11:19.778Z,995.22
2017-09-13T04:12:19.798Z,995.24
2017-09-13T04:13:19.818Z,995.26
2017-09-13T04:14:19.835Z,995.28
2017-09-13T04:15:19.853Z,995.24
2017-09-13T04:16:19.871Z,995.26
2017-09-13T04:17:19.888Z,995.22
2017-09-13T04:18:19.905Z,995.17
2017-09-13T04:19:19.951Z,995.21
2017-09-13T04:20:19.942Z,995.19
2017-09-13T04:21:20.035Z,995.18
2017-09-13T04:22:19.982Z,995.18
2017-09-13T04:23:20.004Z,995.12
2017-09-13T04:24:20.026Z,995.15
2017-09-13T04:25:20.034Z,995.15
2017-09-13T04:26:20.050Z,995.09
2017-09-13T04:27:20.072Z,995.11
2017-09-13T04:28:20.088Z,995.06
2017-09-13T04:29:20.105Z,995.01
2017-09-13T04:30:20.124Z,994.97
2017-09-13T04:31:20.142Z,994.99
2017-09-13T04:32:20.163Z,994.94
2017-09-13T04:33:20.179Z,994.83
2017-09-13T04:34:20.196Z,994.85
2017-09-13T04:35:20.215Z,994.9
2017-09-13T04:36:20.232Z,994.75
2017-09-13T04:37:20.252Z,994.67
2017-09-13T04:38:20.273Z,994.62
2017-09-13T04:39:20.288Z,994.56
2017-09-13T04:40:20.306Z,994.56
2017-09-13T04:41:20.324Z,994.54
2017-09-13T04:42:20.344Z,994.49
2017-09-13T04:43:20.361Z,994.41
2017-09-13T04:44:20.379Z,994.42
2017-09-13T04:45:20.402Z,994.34
2017-09-13T04:46:20.415Z,994.29
2017-09-13T04:47:20.432Z,994.24
2017-09-13T04:48:20.450Z,994.13
2017-09-13T04:49:20.469Z,994.16
2017-09-13T04:50:20.487Z,994.18
2017-09-13T04:51:20.506Z,994.17
2017-09-13T04:52:20.523Z,994.12
2017-09-13T04:53:20.542Z,994.06
2017-09-13T04:54:20.561Z,994.03
2017-09-13T04:55:20.579Z,994.01
2017-09-13T04:56:20.596Z,993.98
2017-09-13T04:57:20.614Z,993.93
2017-09-13T04:58:20.632Z,993.88
2017-09-13T04:59:20.655Z,993.82
2017-09-13T05:00:20.673Z,993.89
2017-09-13T05:01:20.688Z,993.88
2017-09-13T05:02:20.706Z,993.97
2017-09-13T05:03:20.724Z,993.98
2017-09-13T05:04:20.742Z,994.01
2017-09-13T05:05:20.761Z,993.89
2017-09-13T05:06:20.779Z,993.84
2017-09-13T05:07:20.796Z,993.84
2017-09-13T05:08:20.816Z,993.87
2017-09-13T05:09:20.834Z,993.87
2017-09-13T05:10:20.852Z,993.82
2017-09-13T05:11:20.870Z,993.89
2017-09-13T05:12:20.892Z,993.79
2017-09-13T05:13:20.907Z,993.78
2017-09-13T05:14:20.927Z,993.79
2017-09-13T05:15:20.945Z,993.78
2017-09-13T05:16:20.961Z,993.74
2017-09-13T05:17:20.980Z,993.85
2017-09-13T05:18:21.000Z,993.72
2017-09-13T05:19:21.018Z,993.7
2017-09-13T05:20:21.035Z,993.68
2017-09-13T05:21:21.054Z,993.71
2017-09-13T05:22:21.071Z,993.62
2017-09-13T05:23:21.093Z,993.62
2017-09-13T05:24:21.107Z,993.56
2017-09-13T05:25:21.126Z,993.52
2017-09-13T05:26:21.145Z,993.5
2017-09-13T05:27:21.162Z,993.6
2017-09-13T05:28:21.183Z,993.54
2017-09-13T05:29:21.202Z,993.47
2017-09-13T05:30:21.219Z,993.46
2017-09-13T05:31:21.234Z,993.43
2017-09-13T05:32:21.255Z,993.4
2017-09-13T05:33:21.272Z,993.33
2017-09-13T05:34:21.292Z,993.23
2017-09-13T05:35:21.308Z,993.26
2017-09-13T05:36:21.332Z,993.21
2017-09-13T05:37:21.346Z,993.18
2017-09-13T05:38:21.363Z,993.13
2017-09-13T05:39:21.386Z,993.06
2017-09-13T05:40:21.402Z,992.99
2017-09-13T05:41:21.422Z,992.96
2017-09-13T05:42:21.446Z,992.95
2017-09-13T05:43:21.459Z,992.91
2017-09-13T05:44:21.473Z,992.85
2017-09-13T05:45:21.493Z,992.88
2017-09-13T05:46:21.509Z,992.84
2017-09-13T05:47:21.529Z,992.82
2017-09-13T05:48:21.547Z,992.82
2017-09-13T05:49:21.566Z,992.8
2017-09-13T05:50:21.582Z,992.79
2017-09-13T05:51:21.602Z,992.65
2017-09-13T05:52:21.625Z,992.61
2017-09-13T05:53:21.639Z,992.57
2017-09-13T05:54:21.656Z,992.48
2017-09-13T05:55:21.677Z,992.43
2017-09-13T05:56:21.697Z,992.36
2017-09-13T05:57:21.710Z,992.33
2017-09-13T05:58:21.731Z,992.32
2017-09-13T05:59:21.751Z,992.31
2017-09-13T06:00:21.767Z,992.21
2017-09-13T06:01:21.786Z,992.14
2017-09-13T06:02:21.806Z,992.15
2017-09-13T06:03:21.823Z,992.09
2017-09-13T06:04:21.840Z,992.07
2017-09-13T06:05:21.859Z,992.05
2017-09-13T06:06:21.878Z,991.98
2017-09-13T06:07:21.903Z,992.03
2017-09-13T06:08:21.914Z,992.04
2017-09-13T06:09:21.933Z,992.04
2017-09-13T06:10:21.953Z,992.09
2017-09-13T06:11:21.969Z,992.13
2017-09-13T06:12:21.989Z,992
2017-09-13T06:13:22.009Z,992.07
2017-09-13T06:14:22.026Z,992.02
2017-09-13T06:15:22.043Z,992.02
2017-09-13T06:16:22.065Z,992.05
2017-09-13T06:17:22.082Z,992.09
2017-09-13T06:18:22.100Z,992.06
2017-09-13T06:19:22.120Z,992.09
2017-09-13T06:20:22.136Z,992.04
2017-09-13T06:21:22.155Z,992.03
2017-09-13T06:22:22.174Z,992.07
2017-09-13T06:23:22.192Z,992.01
2017-09-13T06:24:22.212Z,991.92
2017-09-13T06:25:22.231Z,991.96
2017-09-13T06:26:22.249Z,991.92
2017-09-13T06:27:22.269Z,991.91
2017-09-13T06:28:22.288Z,991.83
2017-09-13T06:29:22.305Z,991.83
2017-09-13T06:30:22.324Z,991.79
2017-09-13T06:31:22.340Z,991.8
2017-09-13T06:32:22.361Z,991.82
2017-09-13T06:33:22.385Z,991.87
2017-09-13T06:34:22.398Z,991.85
2017-09-13T06:35:22.415Z,991.87
2017-09-13T06:36:22.433Z,991.77
2017-09-13T06:37:22.452Z,991.75
2017-09-13T06:38:22.470Z,991.75
2017-09-13T06:39:22.492Z,991.75
2017-09-13T06:40:22.509Z,991.66
2017-09-13T06:41:22.525Z,991.68
2017-09-13T06:42:22.545Z,991.5
2017-09-13T06:43:22.563Z,991.51
2017-09-13T06:44:22.580Z,991.51
2017-09-13T06:45:22.599Z,991.46
2017-09-13T06:46:22.621Z,991.54
2017-09-13T06:47:22.638Z,991.45
2017-09-13T06:48:22.655Z,991.47
2017-09-13T06:49:22.680Z,991.42
2017-09-13T06:50:22.693Z,991.41
2017-09-13T06:51:22.711Z,991.32
2017-09-13T06:52:22.731Z,991.35
2017-09-13T06:53:22.751Z,991.32
2017-09-13T06:54:22.770Z,991.32
2017-09-13T06:55:22.787Z,991.29
2017-09-13T06:56:22.806Z,991.38
2017-09-13T06:57:22.824Z,991.31
2017-09-13T06:58:22.845Z,991.3
2017-09-13T06:59:22.863Z,991.26
2017-09-13T07:00:22.881Z,991.19
2017-09-13T07:01:22.899Z,991.18
2017-09-13T07:02:22.919Z,991.08
2017-09-13T07:03:22.939Z,991.12
2017-09-13T07:04:22.955Z,991.13
2017-09-13T07:05:22.975Z,991.17
2017-09-13T07:06:22.994Z,991.19
2017-09-13T07:07:23.013Z,991.13
2017-09-13T07:08:23.031Z,991.11
2017-09-13T07:09:23.050Z,991.1
2017-09-13T07:10:23.069Z,991.01
2017-09-13T07:11:23.086Z,991.05
2017-09-13T07:12:23.108Z,991.02
2017-09-13T07:13:23.125Z,991.02
2017-09-13T07:14:23.143Z,991.01
2017-09-13T07:15:23.162Z,991.02
2017-09-13T07:16:23.183Z,991
2017-09-13T07:17:23.199Z,991
2017-09-13T07:18:23.220Z,990.94
2017-09-13T07:19:23.238Z,990.96
2017-09-13T07:20:23.257Z,990.97
2017-09-13T07:21:23.277Z,990.9
2017-09-13T07:22:23.296Z,990.96
2017-09-13T07:23:23.314Z,990.9
2017-09-13T07:24:23.332Z,990.97
2017-09-13T07:25:23.350Z,991.04
2017-09-13T07:26:23.371Z,991.02
2017-09-13T07:27:23.391Z,991.05
2017-09-13T07:28:23.406Z,991.08
2017-09-13T07:29:23.426Z,991.04
2017-09-13T07:30:23.447Z,990.94
2017-09-13T07:31:23.466Z,990.96
2017-09-13T07:32:23.482Z,990.93
2017-09-13T07:33:23.503Z,990.94
2017-09-13T07:34:23.524Z,990.91
2017-09-13T07:35:23.541Z,990.89
2017-09-13T07:36:23.560Z,990.87
2017-09-13T07:37:23.576Z,990.88
2017-09-13T07:38:23.597Z,990.78
2017-09-13T07:39:23.616Z,990.8
2017-09-13T07:40:23.634Z,990.71
2017-09-13T07:41:23.654Z,990.78
2017-09-13T07:42:23.673Z,990.85
2017-09-13T07:43:23.690Z,990.78
2017-09-13T07:44:23.715Z,990.75
2017-09-13T07:45:23.729Z,990.82
2017-09-13T07:46:23.749Z,990.79
2017-09-13T07:47:23.767Z,990.78
2017-09-13T07:48:23.786Z,990.77
2017-09-13T07:49:23.806Z,990.73
2017-09-13T07:50:23.824Z,990.68
2017-09-13T07:51:23.841Z,990.66
2017-09-13T07:52:23.861Z,990.66
2017-09-13T07:53:23.881Z,990.65
2017-09-13T07:54:23.900Z,990.68
2017-09-13T07:55:23.921Z,990.69
2017-09-13T07:56:23.940Z,990.71
2017-09-13T07:57:23.957Z,990.79
2017-09-13T07:58:23.976Z,990.72
2017-09-13T07:59:23.993Z,990.72
2017-09-13T08:00:24.029Z,990.75
2017-09-13T08:01:24.037Z,990.77
2017-09-13T08:02:24.065Z,990.68
2017-09-13T08:03:24.070Z,990.75
2017-09-13T08:04:24.090Z,990.77
2017-09-13T08:05:24.119Z,990.74
2017-09-13T08:06:24.128Z,990.7
2017-09-13T08:07:24.147Z,990.66
2017-09-13T08:08:24.164Z,990.68
2017-09-13T08:09:24.184Z,990.67
2017-09-13T08:10:24.204Z,990.73
2017-09-13T08:11:24.222Z,990.71
2017-09-13T08:12:24.242Z,990.67
2017-09-13T08:13:24.259Z,990.65
2017-09-13T08:14:24.279Z,990.59
2017-09-13T08:15:24.302Z,990.63
2017-09-13T08:16:24.317Z,990.6
2017-09-13T08:17:24.335Z,990.55
2017-09-13T08:18:24.355Z,990.52
2017-09-13T08:19:24.374Z,990.59
2017-09-13T08:20:24.392Z,990.55
2017-09-13T08:21:24.411Z,990.57
2017-09-13T08:22:24.431Z,990.55
2017-09-13T08:23:24.448Z,990.56
2017-09-13T08:24:24.471Z,990.57
2017-09-13T08:25:24.488Z,990.58
2017-09-13T08:26:24.507Z,990.61
2017-09-13T08:27:24.528Z,990.55
2017-09-13T08:28:24.545Z,990.51
2017-09-13T08:29:24.565Z,990.6
2017-09-13T08:30:24.584Z,990.61
2017-09-13T08:31:24.603Z,990.58
2017-09-13T08:32:24.621Z,990.59
2017-09-13T08:33:24.641Z,990.48
2017-09-13T08:34:24.664Z,990.49
2017-09-13T08:35:24.695Z,990.48
2017-09-13T08:36:24.702Z,990.49
2017-09-13T08:37:24.718Z,990.52
2017-09-13T08:38:24.739Z,990.58
2017-09-13T08:39:24.755Z,990.51
2017-09-13T08:40:24.775Z,990.56
2017-09-13T08:41:24.793Z,990.49
2017-09-13T08:42:24.813Z,990.48
2017-09-13T08:43:24.832Z,990.4
2017-09-13T08:44:24.851Z,990.46
2017-09-13T08:45:24.871Z,990.42
2017-09-13T08:46:24.890Z,990.35
2017-09-13T08:47:24.907Z,990.34
2017-09-13T08:48:24.928Z,990.38
2017-09-13T08:49:24.948Z,990.4
2017-09-13T08:50:24.966Z,990.32
2017-09-13T08:51:24.986Z,990.33
2017-09-13T08:52:25.005Z,990.22
2017-09-13T08:53:25.027Z,990.22
2017-09-13T08:54:25.046Z,990.21
2017-09-13T08:55:25.181Z,990.22
2017-09-13T08:56:25.082Z,990.21
2017-09-13T08:57:25.103Z,990.14
2017-09-13T08:58:25.120Z,990.1
2017-09-13T08:59:25.139Z,990.04
2017-09-13T09:00:25.158Z,990.04
2017-09-13T09:01:25.178Z,990.05
2017-09-13T09:02:25.200Z,989.99
2017-09-13T09:03:25.216Z,989.97
2017-09-13T09:04:25.237Z,989.95
2017-09-13T09:05:25.254Z,989.92
2017-09-13T09:06:25.278Z,990
2017-09-13T09:07:25.293Z,989.92
2017-09-13T09:08:25.314Z,990.04
2017-09-13T09:09:25.333Z,990.01
2017-09-13T09:10:25.353Z,989.85
2017-09-13T09:11:25.378Z,989.88
2017-09-13T09:12:25.391Z,989.89
2017-09-13T09:13:25.411Z,989.86
2017-09-13T09:14:25.429Z,990.01
2017-09-13T09:15:25.453Z,989.91
2017-09-13T09:16:25.469Z,989.89
2017-09-13T09:17:25.489Z,989.77
2017-09-13T09:18:25.508Z,989.79
2017-09-13T09:19:25.528Z,989.63
2017-09-13T09:20:25.549Z,989.88
2017-09-13T09:21:25.574Z,989.78
2017-09-13T09:22:25.586Z,989.74
2017-09-13T09:23:25.609Z,989.9
2017-09-13T09:24:25.626Z,989.8
2017-09-13T09:25:25.645Z,989.76
2017-09-13T09:26:25.666Z,989.7
2017-09-13T09:27:25.685Z,989.72
2017-09-13T09:28:25.705Z,989.82
2017-09-13T09:29:25.725Z,989.8
2017-09-13T09:30:25.744Z,989.61
2017-09-13T09:31:25.764Z,989.65
2017-09-13T09:32:25.784Z,989.6
2017-09-13T09:33:25.805Z,989.68
2017-09-13T09:34:25.827Z,989.58
2017-09-13T09:35:25.886Z,989.74
2017-09-13T09:36:25.865Z,989.59
2017-09-13T09:37:25.885Z,989.64
2017-09-13T09:38:25.904Z,989.64
2017-09-13T09:39:25.924Z,989.57
2017-09-13T09:40:25.945Z,989.51
2017-09-13T09:41:25.964Z,989.43
2017-09-13T09:42:25.986Z,989.51
2017-09-13T09:43:26.002Z,989.59
2017-09-13T09:44:26.026Z,989.64
2017-09-13T09:45:26.043Z,989.67
2017-09-13T09:46:26.065Z,989.69
2017-09-13T09:47:26.085Z,989.66
2017-09-13T09:48:26.105Z,989.68
2017-09-13T09:49:26.125Z,989.84
2017-09-13T09:50:26.146Z,989.6
2017-09-13T09:51:26.166Z,989.67
2017-09-13T09:52:26.187Z,989.58
2017-09-13T09:53:26.206Z,989.61
2017-09-13T09:54:26.224Z,989.6
2017-09-13T09:55:26.245Z,989.56
2017-09-13T09:56:26.267Z,989.54
2017-09-13T09:57:26.288Z,989.55
2017-09-13T09:58:26.308Z,989.49
2017-09-13T09:59:26.331Z,989.53
2017-09-13T10:00:26.350Z,989.39
2017-09-13T10:01:26.373Z,989.44
2017-09-13T10:02:26.390Z,989.39
2017-09-13T10:03:26.411Z,989.55
2017-09-13T10:04:26.432Z,989.55
2017-09-13T10:05:26.452Z,989.46
2017-09-13T10:06:26.474Z,989.43
2017-09-13T10:07:26.493Z,989.47
2017-09-13T10:08:26.515Z,989.41
2017-09-13T10:09:26.535Z,989.51
2017-09-13T10:10:26.555Z,989.3
2017-09-13T10:11:26.576Z,989.24
2017-09-13T10:12:26.597Z,989.26
2017-09-13T10:13:26.620Z,989.4
2017-09-13T10:14:26.637Z,989.39
2017-09-13T10:15:26.660Z,989.41
2017-09-13T10:16:26.680Z,989.27
2017-09-13T10:17:26.700Z,989.32
2017-09-13T10:18:26.726Z,989.3
2017-09-13T10:19:26.744Z,989.25
2017-09-13T10:20:26.764Z,989.2
2017-09-13T10:21:26.785Z,989.3
2017-09-13T10:22:26.806Z,989.46
2017-09-13T10:23:26.825Z,989.58
2017-09-13T10:24:26.846Z,989.51
2017-09-13T10:25:26.867Z,989.51
2017-09-13T10:26:26.887Z,989.29
2017-09-13T10:27:26.907Z,989.39
2017-09-13T10:28:26.929Z,989.31
2017-09-13T10:29:26.951Z,989.35
2017-09-13T10:30:26.971Z,989.27
2017-09-13T10:31:26.992Z,989.24
2017-09-13T10:32:27.013Z,989.32
2017-09-13T10:33:27.037Z,989.13
2017-09-13T10:34:27.054Z,989.39
2017-09-13T10:35:27.074Z,989.17
2017-09-13T10:36:27.097Z,989.23
2017-09-13T10:37:27.117Z,989.25
2017-09-13T10:38:27.136Z,989.16
2017-09-13T10:39:27.159Z,989.22
2017-09-13T10:40:27.180Z,989.15
2017-09-13T10:41:27.200Z,989.08
2017-09-13T10:42:27.426Z,989.08
2017-09-13T10:43:27.241Z,989.16
2017-09-13T10:44:27.263Z,989.14
2017-09-13T10:45:27.286Z,989.11
2017-09-13T10:46:27.305Z,989.07
2017-09-13T10:47:27.329Z,989.12
2017-09-13T10:48:27.350Z,989.07
2017-09-13T10:49:27.367Z,989.09
2017-09-13T10:50:27.393Z,989.06
2017-09-13T10:51:27.423Z,989.09
2017-09-13T10:52:27.433Z,988.96
2017-09-13T10:53:27.450Z,988.99
2017-09-13T10:54:27.471Z,988.87
2017-09-13T10:55:27.495Z,988.83
2017-09-13T10:56:27.513Z,988.73
2017-09-13T10:57:27.535Z,988.73
2017-09-13T10:58:27.556Z,988.84
2017-09-13T10:59:27.577Z,989.05
2017-09-13T11:00:27.601Z,989.07
2017-09-13T11:01:27.621Z,988.89
2017-09-13T11:02:27.662Z,989.05
2017-09-13T11:03:27.662Z,989.03
2017-09-13T11:04:27.684Z,989.15
2017-09-13T11:05:27.705Z,988.89
2017-09-13T11:06:27.725Z,988.85
2017-09-13T11:07:27.746Z,988.81
2017-09-13T11:08:27.770Z,988.96
2017-09-13T11:09:27.789Z,988.82
2017-09-13T11:10:27.926Z,988.93
2017-09-13T11:11:27.831Z,988.81
2017-09-13T11:12:27.852Z,988.95
2017-09-13T11:13:28.010Z,988.88
2017-09-13T11:14:27.987Z,988.84
2017-09-13T11:15:28.008Z,988.96
2017-09-13T11:16:28.043Z,988.83
2017-09-13T11:17:28.042Z,989.09
2017-09-13T11:18:28.042Z,989.07
2017-09-13T11:19:28.111Z,988.9
2017-09-13T11:20:28.045Z,988.73
2017-09-13T11:21:28.044Z,988.94
2017-09-13T11:22:28.179Z,988.89
2017-09-13T11:23:28.109Z,988.81
2017-09-13T11:24:28.320Z,988.83
2017-09-13T11:25:28.228Z,988.93
2017-09-13T11:26:28.215Z,988.85
2017-09-13T11:27:28.257Z,988.79
2017-09-13T11:28:28.240Z,988.79
2017-09-13T11:29:28.238Z,988.69
2017-09-13T11:30:28.247Z,988.55
2017-09-13T11:31:28.254Z,988.62
2017-09-13T11:32:28.279Z,988.63
2017-09-13T11:33:28.297Z,988.66
2017-09-13T11:34:28.322Z,988.65
2017-09-13T11:35:28.372Z,988.64
2017-09-13T11:36:28.363Z,988.7
2017-09-13T11:37:28.384Z,988.63
2017-09-13T11:38:28.408Z,988.59
2017-09-13T11:39:28.428Z,988.63
2017-09-13T11:40:28.450Z,988.63
2017-09-13T11:41:28.470Z,988.7
2017-09-13T11:42:28.493Z,988.65
2017-09-13T11:43:28.514Z,988.67
2017-09-13T11:44:28.535Z,988.81
2017-09-13T11:45:28.556Z,988.78
2017-09-13T11:46:28.578Z,988.69
2017-09-13T11:47:28.599Z,988.61
2017-09-13T11:48:28.622Z,988.67
2017-09-13T11:49:28.643Z,988.61
2017-09-13T11:50:28.664Z,988.7
2017-09-13T11:51:28.688Z,988.69
2017-09-13T11:52:28.708Z,988.63
2017-09-13T11:53:28.730Z,988.61
2017-09-13T11:54:28.752Z,988.58
2017-09-13T11:55:28.773Z,988.56
2017-09-13T11:56:28.794Z,988.75
2017-09-13T11:57:28.817Z,988.69
2017-09-13T11:58:28.838Z,988.7
2017-09-13T11:59:28.859Z,988.66
2017-09-13T12:00:28.882Z,988.56
2017-09-13T12:01:28.903Z,988.49
2017-09-13T12:02:28.924Z,988.7
2017-09-13T12:03:28.948Z,988.75
2017-09-13T12:04:28.970Z,988.54
2017-09-13T12:05:28.991Z,988.65
2017-09-13T12:06:29.012Z,988.62
2017-09-13T12:07:29.035Z,988.58
2017-09-13T12:08:29.056Z,988.53
2017-09-13T12:09:29.077Z,988.53
2017-09-13T12:10:29.099Z,988.72
2017-09-13T12:11:29.121Z,988.66
2017-09-13T12:12:29.146Z,988.57
2017-09-13T12:13:29.165Z,988.54
2017-09-13T12:14:29.186Z,988.59
2017-09-13T12:15:29.211Z,988.54
2017-09-13T12:16:29.232Z,988.61
2017-09-13T12:17:29.252Z,988.67
2017-09-13T12:18:29.274Z,988.54
2017-09-13T12:19:29.297Z,988.61
2017-09-13T12:20:29.318Z,988.54
2017-09-13T12:21:29.341Z,988.48
2017-09-13T12:22:29.365Z,988.53
2017-09-13T12:23:29.386Z,988.59
2017-09-13T12:24:29.404Z,988.54
2017-09-13T12:25:29.429Z,988.58
2017-09-13T12:26:29.452Z,988.6
2017-09-13T12:27:29.471Z,988.49
2017-09-13T12:28:29.496Z,988.59
2017-09-13T12:29:29.518Z,988.66
2017-09-13T12:30:29.539Z,988.71